Time;durP1;ratioP1;P1;durP2;ratioP2;P2;SDS_P1;SDS_P2;PMS_P1;PMS_P2;Temp;Humidity;BMP_temperature;BMP_pressure;BME280_temperature;BME280_humidity;BME280_pressure;Samples;Min_cycle;Max_cycle;Signal;HPM_P1;HPM_P2
2023/09/18 00:02:21;;;;;;;39.53;26.13;;;;;;;;;;5004853;28;20104;-65
2023/09/18 00:04:47;;;;;;;42.78;25.25;;;17.20;99.90;;;;;;5019200;28;20045;-65
2023/09/18 00:07:13;;;;;;;37.67;24.20;;;17.30;99.90;;;;;;5020235;28;20037;-65
2023/09/18 00:09:40;;;;;;;38.75;24.25;;;;;;;;;;4998109;28;20057;-65
2023/09/18 00:12:06;;;;;;;35.38;23.23;;;;;;;;;;5016989;28;20103;-64
2023/09/18 00:14:32;;;;;;;40.45;24.85;;;;;;;;;;4998755;28;20595;-65
2023/09/18 00:16:58;;;;;;;39.60;25.02;;;;;;;;;;5024194;28;20045;-65
2023/09/18 00:19:24;;;;;;;39.13;25.20;;;17.50;99.90;;;;;;5004383;28;20080;-65
2023/09/18 00:21:50;;;;;;;41.50;25.27;;;;;;;;;;5006274;28;20034;-64
2023/09/18 00:24:17;;;;;;;39.60;25.02;;;;;;;;;;4997475;28;20128;-65
2023/09/18 00:26:43;;;;;;;37.42;25.30;;;;;;;;;;4998951;28;20152;-64
2023/09/18 00:29:08;;;;;;;32.97;24.65;;;17.40;99.90;;;;;;5020123;28;20116;-65
2023/09/18 00:31:34;;;;;;;36.20;24.92;;;17.40;99.90;;;;;;5018232;28;20045;-64
2023/09/18 00:34:00;;;;;;;37.35;25.02;;;;;;;;;;5005125;28;20053;-64
2023/09/18 00:36:26;;;;;;;34.03;25.30;;;;;;;;;;5023721;28;20045;-65
2023/09/18 00:38:52;;;;;;;35.15;25.90;;;;;;;;;;5002011;28;20124;-65
2023/09/18 00:41:17;;;;;;;37.72;25.20;;;17.50;99.90;;;;;;5017577;28;20057;-65
2023/09/18 00:43:43;;;;;;;37.63;25.67;;;;;;;;;;4983683;28;20501;-65
2023/09/18 00:46:09;;;;;;;37.38;26.00;;;17.40;99.90;;;;;;4981479;28;20044;-64
2023/09/18 00:48:34;;;;;;;36.10;24.30;;;17.40;99.90;;;;;;4980480;28;20057;-65
2023/09/18 00:51:02;;;;;;;36.30;25.13;;;17.50;99.90;;;;;;5002337;28;20066;-65
2023/09/18 00:53:27;;;;;;;31.42;23.58;;;17.50;99.90;;;;;;4985547;28;20070;-65
2023/09/18 00:55:56;;;;;;;32.35;23.35;;;17.70;99.90;;;;;;4991006;28;20535;-65
2023/09/18 00:58:22;;;;;;;31.40;22.65;;;17.60;99.90;;;;;;5001401;28;20038;-65
2023/09/18 01:00:50;;;;;;;33.35;22.65;;;;;;;;;;4996887;28;20030;-65
2023/09/18 01:03:18;;;;;;;30.60;22.23;;;;;;;;;;4982439;28;20046;-65
2023/09/18 01:05:44;;;;;;;34.65;23.83;;;;;;;;;;4979854;28;20125;-64
2023/09/18 01:08:10;;;;;;;31.40;22.98;;;17.70;99.90;;;;;;4982032;28;20159;-65
2023/09/18 01:11:08;;;;;;;29.90;21.70;;;17.50;99.90;;;;;;4983644;28;20057;-65
2023/09/18 01:13:40;;;;;;;33.08;22.17;;;17.70;99.90;;;;;;4969325;28;20050;-65
2023/09/18 01:16:16;;;;;;;29.90;21.65;;;17.50;99.90;;;;;;4974288;28;20053;-65
2023/09/18 01:18:51;;;;;;;33.63;22.27;;;17.80;99.90;;;;;;4978364;28;20107;-65
2023/09/18 01:21:18;;;;;;;;;;;17.90;99.90;;;;;;4996159;28;20035;-65
2023/09/18 01:23:44;;;;;;;27.15;20.38;;;;;;;;;;4971842;28;19933;-64
2023/09/18 01:26:10;;;;;;;28.38;19.67;;;;;;;;;;4971133;28;20042;-64
2023/09/18 01:28:36;;;;;;;32.25;22.63;;;;;;;;;;4999931;28;20073;-65
2023/09/18 01:31:02;;;;;;;37.38;22.23;;;17.60;99.90;;;;;;5006423;28;20057;-65
2023/09/18 01:33:29;;;;;;;31.38;22.35;;;17.70;99.90;;;;;;5001918;28;20053;-64
2023/09/18 01:35:56;;;;;;;29.25;21.77;;;17.60;99.90;;;;;;4999419;28;20062;-65
2023/09/18 01:38:23;;;;;;;30.35;23.15;;;17.60;99.90;;;;;;4988297;28;20391;-64
2023/09/18 01:40:49;;;;;;;30.50;22.27;;;;;;;;;;5001592;28;20035;-65
2023/09/18 01:43:15;;;;;;;31.58;22.63;;;17.90;99.90;;;;;;4985532;28;20457;-65
2023/09/18 01:45:42;;;;;;;26.20;20.02;;;17.90;99.90;;;;;;5004340;28;20042;-64
2023/09/18 01:48:08;;;;;;;27.40;21.35;;;18.00;99.90;;;;;;5007645;28;20041;-65
2023/09/18 01:50:34;;;;;;;28.05;19.80;;;;;;;;;;4977924;28;20705;-64
2023/09/18 01:53:00;;;;;;;28.75;20.52;;;;;;;;;;4983387;28;20050;-64
2023/09/18 01:55:25;;;;;;;26.77;19.70;;;18.10;99.90;;;;;;4982376;28;20088;-64
2023/09/18 01:57:52;;;;;;;25.40;18.90;;;;;;;;;;4979891;28;20414;-65
2023/09/18 02:00:18;;;;;;;29.25;20.58;;;;;;;;;;4956582;28;20050;-65
2023/09/18 02:02:43;;;;;;;25.63;20.77;;;18.20;99.90;;;;;;4985207;28;20180;-64
2023/09/18 02:05:09;;;;;;;25.40;19.85;;;;;;;;;;5006993;28;20129;-65
2023/09/18 02:07:35;;;;;;;28.15;19.70;;;;;;;;;;4989637;28;20413;-65
2023/09/18 02:10:01;;;;;;;32.28;22.25;;;18.30;99.90;;;;;;4974302;28;20498;-65
2023/09/18 02:12:27;;;;;;;29.33;22.15;;;;;;;;;;4999948;28;20041;-64
2023/09/18 02:14:52;;;;;;;31.95;24.35;;;18.40;99.90;;;;;;4987836;28;20054;-64
2023/09/18 02:17:20;;;;;;;25.77;22.05;;;18.30;99.90;;;;;;5000131;28;20054;-65
2023/09/18 02:19:46;;;;;;;28.42;21.95;;;18.30;99.90;;;;;;4986919;28;20042;-64
2023/09/18 02:22:11;;;;;;;27.65;22.80;;;18.30;99.90;;;;;;4972543;28;20050;-64
2023/09/18 02:24:37;;;;;;;27.70;21.38;;;;;;;;;;4982673;28;20045;-64
2023/09/18 02:27:06;;;;;;;27.38;22.13;;;18.30;99.90;;;;;;4999349;28;20731;-65
2023/09/18 02:29:31;;;;;;;32.65;22.17;;;18.30;99.90;;;;;;4984895;28;20054;-65
2023/09/18 02:31:57;;;;;;;30.60;22.45;;;18.20;99.90;;;;;;4985167;28;20409;-64
2023/09/18 02:34:23;;;;;;;28.90;20.65;;;;;;;;;;4976642;28;20501;-65
2023/09/18 02:36:48;;;;;;;29.25;21.45;;;18.30;99.90;;;;;;4986468;28;20053;-65
2023/09/18 02:39:14;;;;;;;28.00;20.92;;;18.50;99.90;;;;;;5001605;28;20034;-64
2023/09/18 02:41:39;;;;;;;32.28;23.55;;;18.30;99.90;;;;;;4995234;28;20066;-65
2023/09/18 02:44:05;;;;;;;31.15;22.25;;;;;;;;;;5018230;28;20053;-65
2023/09/18 02:46:31;;;;;;;31.63;21.85;;;18.30;99.90;;;;;;5024960;28;20052;-65
2023/09/18 02:48:57;;;;;;;30.13;21.90;;;;;;;;;;5007322;28;20095;-65
2023/09/18 02:51:23;;;;;;;31.83;21.63;;;;;;;;;;5023041;28;20106;-64
2023/09/18 02:53:49;;;;;;;28.38;21.55;;;18.40;99.90;;;;;;5018006;28;20052;-65
2023/09/18 02:56:14;;;;;;;29.65;21.88;;;18.40;99.90;;;;;;5013278;28;20041;-64
2023/09/18 02:58:40;;;;;;;28.70;21.80;;;;;;;;;;4993488;28;20523;-64
2023/09/18 03:01:07;;;;;;;31.23;22.17;;;18.30;99.90;;;;;;5024565;28;20041;-65
2023/09/18 03:03:33;;;;;;;30.77;22.63;;;18.30;99.90;;;;;;5024308;28;20045;-65
2023/09/18 03:06:03;;;;;;;29.23;22.60;;;18.20;99.90;;;;;;5007773;28;20057;-64
2023/09/18 03:08:29;;;;;;;31.00;22.67;;;;;;;;;;5023540;28;20588;-65
2023/09/18 03:10:54;;;;;;;28.48;21.58;;;18.30;99.90;;;;;;4997818;28;20524;-65
2023/09/18 03:13:21;;;;;;;30.25;23.27;;;18.30;99.90;;;;;;5000380;28;20045;-65
2023/09/18 03:15:48;;;;;;;30.70;22.65;;;;;;;;;;5017892;28;20041;-64
2023/09/18 03:18:14;;;;;;;28.23;22.13;;;;;;;;;;5002827;28;20044;-64
2023/09/18 03:20:40;;;;;;;29.67;21.73;;;18.20;99.90;;;;;;5021275;28;20042;-65
2023/09/18 03:23:05;;;;;;;28.65;22.70;;;18.30;99.90;;;;;;5024366;28;20568;-65
2023/09/18 03:25:31;;;;;;;32.83;22.45;;;;;;;;;;5017874;28;20522;-65
2023/09/18 03:27:57;;;;;;;30.23;22.38;;;18.30;99.90;;;;;;5005250;28;20052;-64
2023/09/18 03:30:24;;;;;;;29.98;22.40;;;;;;;;;;5023346;28;20091;-64
2023/09/18 03:32:50;;;;;;;33.00;22.52;;;18.40;99.90;;;;;;5017006;28;20125;-65
2023/09/18 03:35:19;;;;;;;29.73;21.30;;;;;;;;;;5016353;28;20040;-65
2023/09/18 03:37:50;;;;;;;27.95;21.50;;;18.30;99.90;;;;;;4995134;28;20050;-65
2023/09/18 03:40:19;;;;;;;30.90;21.80;;;18.30;99.90;;;;;;4996148;28;20037;-64
2023/09/18 03:42:46;;;;;;;27.95;21.90;;;18.10;99.90;;;;;;4984076;28;20074;-65
2023/09/18 03:45:12;;;;;;;28.05;19.58;;;;;;;;;;4979210;28;20041;-65
2023/09/18 03:47:39;;;;;;;26.23;20.60;;;18.40;99.90;;;;;;4991735;28;20432;-65
2023/09/18 03:50:06;;;;;;;28.40;20.75;;;18.30;99.90;;;;;;5000396;28;20049;-64
2023/09/18 03:52:32;;;;;;;29.67;21.50;;;;;;;;;;4994377;28;20573;-64
2023/09/18 03:54:58;;;;;;;28.00;20.52;;;;;;;;;;4980574;28;20095;-65
2023/09/18 03:57:24;;;;;;;24.23;19.52;;;;;;;;;;4985164;28;20050;-65
2023/09/18 03:59:50;;;;;;;26.77;19.88;;;18.30;99.90;;;;;;5000549;28;20075;-65
2023/09/18 04:02:15;;;;;;;24.83;19.02;;;18.40;99.90;;;;;;4999975;28;20058;-64
2023/09/18 04:04:41;;;;;;;24.83;18.75;;;18.30;99.90;;;;;;4976483;28;20064;-64
2023/09/18 04:07:07;;;;;;;26.52;19.13;;;18.30;99.90;;;;;;4998978;28;20029;-65
2023/09/18 04:09:36;;;;;;;27.10;19.08;;;;;;;;;;4996794;28;20672;-65
2023/09/18 04:12:04;;;;;;;23.15;18.77;;;;;;;;;;4999106;28;20037;-64
2023/09/18 04:14:30;;;;;;;25.80;17.88;;;18.30;99.90;;;;;;4994886;28;20038;-65
2023/09/18 04:16:56;;;;;;;27.50;18.92;;;18.30;99.90;;;;;;4997866;28;20042;-65
2023/09/18 04:19:22;;;;;;;26.33;17.95;;;;;;;;;;4984045;28;20096;-64
2023/09/18 04:21:48;;;;;;;24.35;17.17;;;18.30;99.90;;;;;;4982654;28;20065;-65
2023/09/18 04:24:13;;;;;;;24.33;16.80;;;18.30;99.90;;;;;;4978985;28;20042;-65
2023/09/18 04:26:39;;;;;;;22.45;17.45;;;18.30;99.90;;;;;;4999034;28;20048;-64
2023/09/18 04:29:05;;;;;;;22.65;16.60;;;;;;;;;;4979796;28;20502;-65
2023/09/18 04:31:31;;;;;;;23.08;15.80;;;18.30;99.90;;;;;;4984617;28;20088;-64
2023/09/18 04:33:57;;;;;;;21.17;16.33;;;;;;;;;;4994315;28;20046;-65
2023/09/18 04:36:24;;;;;;;19.65;15.75;;;;;;;;;;4999288;28;20038;-64
2023/09/18 04:38:50;;;;;;;25.98;16.67;;;;;;;;;;4981675;28;20054;-65
2023/09/18 04:41:16;;;;;;;21.92;15.65;;;18.30;99.90;;;;;;4989230;28;20484;-65
2023/09/18 04:43:44;;;;;;;21.52;14.57;;;18.20;99.90;;;;;;4995999;28;20096;-65
2023/09/18 04:46:10;;;;;;;20.10;14.52;;;;;;;;;;4997934;28;20858;-65
2023/09/18 04:48:36;;;;;;;22.92;14.75;;;18.20;99.90;;;;;;5020832;28;20052;-65
2023/09/18 04:51:03;;;;;;;17.83;13.57;;;18.30;99.90;;;;;;5002327;28;20488;-64
2023/09/18 04:53:30;;;;;;;21.42;14.10;;;18.40;99.90;;;;;;4996893;28;20041;-64
2023/09/18 04:55:56;;;;;;;21.83;13.52;;;;;;;;;;5019790;28;20049;-65
2023/09/18 04:58:21;;;;;;;20.55;13.57;;;18.30;99.90;;;;;;4997668;28;20124;-65
2023/09/18 05:00:54;;;;;;;17.38;13.63;;;18.50;99.90;;;;;;4995827;28;20037;-65
2023/09/18 05:03:20;;;;;;;19.88;13.93;;;18.60;99.90;;;;;;5003127;28;20111;-65
2023/09/18 05:05:46;;;;;;;20.58;13.85;;;;;;;;;;5020294;28;20116;-65
2023/09/18 05:08:11;;;;;;;17.80;12.95;;;18.60;99.90;;;;;;5022137;28;20037;-64
2023/09/18 05:10:37;;;;;;;16.98;12.02;;;18.40;99.90;;;;;;5002340;28;20806;-64
2023/09/18 05:13:03;;;;;;;19.55;13.65;;;;;;;;;;4985897;28;20042;-64
2023/09/18 05:15:29;;;;;;;18.65;13.07;;;18.80;99.90;;;;;;4996305;28;20049;-64
2023/09/18 05:17:57;;;;;;;15.65;12.68;;;18.70;99.90;;;;;;5016296;28;20042;-65
2023/09/18 05:20:24;;;;;;;20.10;13.23;;;18.70;99.90;;;;;;5003817;28;20037;-64
2023/09/18 05:22:52;;;;;;;16.88;12.10;;;18.70;99.90;;;;;;5016791;28;20405;-64
2023/09/18 05:25:19;;;;;;;14.32;10.40;;;;;;;;;;5017730;28;20053;-64
2023/09/18 05:27:44;;;;;;;19.13;11.68;;;18.80;99.90;;;;;;5018695;28;20133;-65
2023/09/18 05:30:15;;;;;;;16.20;12.68;;;18.80;99.90;;;;;;5016746;28;20069;-65
2023/09/18 05:32:42;;;;;;;18.60;12.30;;;18.50;99.90;;;;;;5011785;28;20034;-64
2023/09/18 05:35:10;;;;;;;16.65;13.35;;;;;;;;;;5017713;28;20048;-64
2023/09/18 05:37:39;;;;;;;15.30;12.13;;;18.80;99.90;;;;;;5005345;28;20591;-64
2023/09/18 05:40:09;;;;;;;17.20;11.13;;;18.80;99.90;;;;;;5023541;28;20710;-65
2023/09/18 05:42:36;;;;;;;16.25;10.63;;;;;;;;;;4971140;28;20539;-65
2023/09/18 05:45:04;;;;;;;13.52;10.32;;;;;;;;;;4999642;28;20037;-64
2023/09/18 05:47:30;;;;;;;15.95;9.57;;;;;;;;;;4970583;28;20139;-64
2023/09/18 05:49:56;;;;;;;15.70;11.07;;;;;;;;;;4983168;28;20453;-64
2023/09/18 05:52:23;;;;;;;15.15;11.45;;;;;;;;;;4982023;28;20113;-65
2023/09/18 05:54:49;;;;;;;17.65;11.55;;;;;;;;;;4968939;28;20045;-65
2023/09/18 05:57:16;;;;;;;14.05;10.23;;;;;;;;;;5000089;28;20052;-65
2023/09/18 05:59:44;;;;;;;17.33;10.75;;;;;;;;;;4981622;28;20137;-65
2023/09/18 06:02:11;;;;;;;12.60;9.82;;;;;;;;;;4974312;28;20050;-65
2023/09/18 06:04:36;;;;;;;14.13;11.20;;;18.80;99.90;;;;;;4972148;28;20150;-64
2023/09/18 06:07:06;;;;;;;19.38;10.93;;;18.90;99.90;;;;;;4977927;28;20398;-65
2023/09/18 06:09:31;;;;;;;20.40;10.02;;;18.90;99.90;;;;;;4978374;28;20050;-65
2023/09/18 06:11:59;;;;;;;16.35;10.98;;;;;;;;;;4999520;28;20049;-65
2023/09/18 06:14:25;;;;;;;16.38;10.23;;;18.90;99.90;;;;;;4982809;28;20133;-65
2023/09/18 06:16:51;;;;;;;17.02;11.18;;;;;;;;;;4976662;28;20145;-65
2023/09/18 06:19:19;;;;;;;14.80;11.25;;;18.90;99.90;;;;;;4977075;28;20050;-65
2023/09/18 06:21:45;;;;;;;16.63;12.15;;;18.90;99.90;;;;;;5005005;28;20042;-65
2023/09/18 06:24:12;;;;;;;14.50;11.30;;;;;;;;;;4972714;28;20049;-65
2023/09/18 06:26:38;;;;;;;18.45;12.65;;;;;;;;;;4976243;28;20050;-65
2023/09/18 06:29:04;;;;;;;20.52;12.30;;;18.90;99.90;;;;;;4995126;28;20145;-65
2023/09/18 06:31:31;;;;;;;20.17;12.80;;;;;;;;;;4978637;28;20121;-65
2023/09/18 06:33:56;;;;;;;19.73;12.88;;;19.00;99.90;;;;;;4982340;28;20490;-65
2023/09/18 06:36:22;;;;;;;20.88;13.43;;;;;;;;;;4982792;28;20088;-65
2023/09/18 06:38:48;;;;;;;21.90;15.07;;;19.00;99.90;;;;;;4981188;28;20042;-65
2023/09/18 06:41:14;;;;;;;21.70;13.00;;;18.90;99.90;;;;;;4999417;28;20054;-65
2023/09/18 06:43:39;;;;;;;18.63;13.52;;;18.80;99.90;;;;;;4996171;28;20046;-65
2023/09/18 06:46:07;;;;;;;18.27;14.23;;;18.80;99.90;;;;;;5004624;28;20620;-65
2023/09/18 06:48:33;;;;;;;22.33;14.98;;;;;;;;;;4992683;28;20041;-65
2023/09/18 06:51:02;;;;;;;23.27;14.30;;;18.60;99.90;;;;;;4974462;28;20052;-65
2023/09/18 06:53:28;;;;;;;24.33;15.43;;;18.70;99.90;;;;;;4989534;28;20442;-65
2023/09/18 06:55:54;;;;;;;23.63;15.35;;;18.60;99.90;;;;;;4989590;28;20050;-65
2023/09/18 06:58:20;;;;;;;21.38;14.82;;;18.70;99.90;;;;;;4971001;28;20050;-65
2023/09/18 07:00:46;;;;;;;22.58;14.95;;;;;;;;;;4978353;28;20051;-65
2023/09/18 07:03:11;;;;;;;23.65;15.57;;;18.70;99.90;;;;;;4990616;28;20043;-65
2023/09/18 07:05:37;;;;;;;32.08;16.45;;;18.60;99.90;;;;;;4971276;28;20050;-65
2023/09/18 07:08:05;;;;;;;26.55;14.30;;;18.60;99.90;;;;;;4975476;28;20044;-64
2023/09/18 07:10:32;;;;;;;27.88;13.70;;;;;;;;;;4997515;28;20042;-65
2023/09/18 07:12:58;;;;;;;23.15;14.57;;;18.40;99.90;;;;;;4973931;28;20079;-64
2023/09/18 07:15:23;;;;;;;23.17;14.48;;;18.50;99.90;;;;;;4978189;28;20413;-64
2023/09/18 07:17:49;;;;;;;21.33;14.70;;;18.60;99.90;;;;;;4981236;28;20078;-64
2023/09/18 07:20:15;;;;;;;21.02;12.82;;;18.80;99.90;;;;;;4976334;28;20120;-65
2023/09/18 07:22:45;;;;;;;20.13;12.88;;;19.10;99.90;;;;;;4982068;28;20046;-64
2023/09/18 07:25:11;;;;;;;23.27;14.48;;;;;;;;;;4974059;28;20042;-64
2023/09/18 07:27:38;;;;;;;24.45;15.07;;;;;;;;;;4979812;28;20076;-64
2023/09/18 07:30:04;;;;;;;24.20;15.02;;;18.80;99.90;;;;;;4978691;28;20054;-64
2023/09/18 07:32:30;;;;;;;26.77;16.85;;;18.70;99.90;;;;;;4988141;28;20635;-64
2023/09/18 07:34:55;;;;;;;28.15;16.60;;;18.70;99.90;;;;;;5004456;28;20037;-64
2023/09/18 07:37:21;;;;;;;25.52;18.00;;;18.70;99.90;;;;;;4981857;28;20698;-64
2023/09/18 07:39:47;;;;;;;37.03;18.88;;;;;;;;;;4985573;28;20523;-64
2023/09/18 07:42:13;;;;;;;27.70;17.27;;;;;;;;;;4987032;28;20824;-64
2023/09/18 07:44:39;;;;;;;32.65;18.50;;;18.60;99.90;;;;;;4993681;28;20056;-64
2023/09/18 07:47:05;;;;;;;25.77;16.80;;;;;;;;;;5011207;28;20053;-64
2023/09/18 07:49:30;;;;;;;34.10;18.77;;;18.70;99.90;;;;;;5013591;28;20046;-64
2023/09/18 07:51:56;;;;;;;25.65;17.45;;;;;;;;;;5006845;28;20049;-64
2023/09/18 07:54:22;;;;;;;28.30;18.05;;;18.70;99.90;;;;;;4992232;28;20057;-64
2023/09/18 07:56:49;;;;;;;28.50;17.85;;;;;;;;;;4994452;28;20571;-65
2023/09/18 07:59:14;;;;;;;26.73;17.33;;;18.70;99.90;;;;;;4990501;28;20055;-65
2023/09/18 08:01:41;;;;;;;26.60;17.13;;;18.70;99.90;;;;;;5001410;28;20038;-65
2023/09/18 08:04:07;;;;;;;25.60;17.13;;;;;;;;;;4994083;28;20050;-64
2023/09/18 08:06:33;;;;;;;27.17;15.65;;;;;;;;;;4991508;28;20064;-64
2023/09/18 08:08:59;;;;;;;24.00;17.25;;;;;;;;;;4995041;28;20042;-65
2023/09/18 08:11:24;;;;;;;23.17;16.27;;;18.90;99.90;;;;;;4993572;28;20502;-65
2023/09/18 08:13:50;;;;;;;27.58;17.45;;;18.70;99.90;;;;;;4997966;28;20052;-65
2023/09/18 08:16:17;;;;;;;23.73;16.30;;;;;;;;;;5017706;28;20029;-65
2023/09/18 08:18:43;;;;;;;29.00;16.27;;;;;;;;;;4995150;28;20049;-65
2023/09/18 08:21:09;;;;;;;22.20;15.25;;;18.90;99.90;;;;;;4999820;28;20042;-65
2023/09/18 08:23:38;;;;;;;23.45;14.80;;;19.10;99.90;;;;;;5001874;28;20046;-64
2023/09/18 08:26:04;;;;;;;22.15;14.15;;;;;;;;;;4996512;28;20069;-65
2023/09/18 08:28:30;;;;;;;23.75;14.02;;;19.10;99.90;;;;;;5015121;28;20052;-65
2023/09/18 08:30:56;;;;;;;20.08;13.48;;;;;;;;;;5022283;28;20049;-65
2023/09/18 08:33:22;;;;;;;20.83;11.73;;;19.10;99.90;;;;;;5001216;28;20787;-65
2023/09/18 08:35:49;;;;;;;16.25;11.20;;;;;;;;;;4993673;28;20042;-65
2023/09/18 08:38:15;;;;;;;19.15;10.60;;;19.00;99.90;;;;;;4999912;28;20060;-65
2023/09/18 08:40:42;;;;;;;14.45;9.82;;;19.20;99.90;;;;;;5010564;28;20033;-65
2023/09/18 08:43:09;;;;;;;16.45;10.02;;;19.20;99.90;;;;;;4985234;28;20053;-65
2023/09/18 08:45:47;;;;;;;14.40;9.73;;;19.10;99.90;;;;;;4954207;28;20093;-65
2023/09/18 08:48:13;;;;;;;15.80;9.73;;;19.00;99.90;;;;;;4970453;28;20046;-65
2023/09/18 08:50:40;;;;;;;14.25;9.18;;;18.90;99.90;;;;;;5001339;28;20041;-65
2023/09/18 08:53:05;;;;;;;17.35;9.25;;;19.00;99.90;;;;;;5000500;28;20521;-65
2023/09/18 08:55:33;;;;;;;12.98;8.98;;;19.00;99.90;;;;;;4979808;28;20073;-64
2023/09/18 08:58:00;;;;;;;14.60;9.65;;;19.00;99.90;;;;;;4998928;28;20125;-64
2023/09/18 09:00:26;;;;;;;15.05;9.70;;;19.00;99.90;;;;;;4982715;28;20493;-64
2023/09/18 09:02:54;;;;;;;14.30;9.43;;;18.90;99.90;;;;;;4993313;28;20038;-64
2023/09/18 09:05:20;;;;;;;18.23;11.75;;;;;;;;;;4993224;28;20046;-64
2023/09/18 09:07:45;;;;;;;16.38;12.00;;;19.10;99.90;;;;;;4980886;28;20050;-64
2023/09/18 09:10:11;;;;;;;18.33;11.07;;;19.10;99.90;;;;;;4983232;28;20107;-64
2023/09/18 09:12:54;;;;;;;17.35;12.00;;;19.20;99.90;;;;;;4995563;28;20489;-64
2023/09/18 09:15:45;;;;;;;17.48;12.10;;;19.20;99.90;;;;;;4985861;28;20093;-64
2023/09/18 09:18:12;;;;;;;19.63;12.63;;;19.30;99.90;;;;;;5001250;28;20052;-64
2023/09/18 09:20:37;;;;;;;20.77;13.13;;;19.30;99.90;;;;;;4976580;28;20053;-65
2023/09/18 09:23:07;;;;;;;18.77;13.57;;;19.50;99.90;;;;;;4992497;28;20042;-64
2023/09/18 09:25:34;;;;;;;17.40;12.38;;;;;;;;;;4988276;28;20870;-64
2023/09/18 09:28:04;;;;;;;19.75;13.93;;;19.40;99.90;;;;;;4998948;28;20073;-65
2023/09/18 09:30:31;;;;;;;18.95;13.25;;;19.60;99.90;;;;;;4978092;28;20059;-64
2023/09/18 09:32:58;;;;;;;21.05;14.27;;;19.50;99.90;;;;;;4998596;28;20038;-65
2023/09/18 09:35:27;;;;;;;21.70;15.30;;;19.50;99.90;;;;;;4992324;28;20229;-63
2023/09/18 09:37:55;;;;;;;24.55;15.35;;;19.80;99.90;;;;;;4972065;28;20062;-65
2023/09/18 09:40:22;;;;;;;17.20;13.80;;;19.80;99.90;;;;;;4964789;28;20093;-64
2023/09/18 09:42:48;;;;;;;20.45;14.88;;;;;;;;;;4987834;28;20057;-64
2023/09/18 09:45:16;;;;;;;23.65;15.15;;;19.70;99.90;;;;;;4988223;28;20041;-64
2023/09/18 09:47:42;;;;;;;21.55;15.45;;;19.80;99.90;;;;;;4990210;28;20039;-64
2023/09/18 09:50:15;;;;;;;22.65;16.13;;;19.90;99.90;;;;;;4968883;28;20049;-64
2023/09/18 09:52:49;;;;;;;22.50;14.68;;;19.90;99.90;;;;;;4975782;28;20063;-64
2023/09/18 09:55:28;;;;;;;19.35;15.27;;;19.90;99.90;;;;;;4999668;28;20045;-64
2023/09/18 09:58:02;;;;;;;17.02;13.63;;;20.20;99.90;;;;;;4985589;28;20118;-64
2023/09/18 10:00:49;;;;;;;17.60;13.70;;;20.30;99.90;;;;;;5003471;28;20124;-64
2023/09/18 10:03:20;;;;;;;24.50;14.00;;;20.30;99.90;;;;;;4997739;28;20117;-64
2023/09/18 10:05:47;;;;;;;17.95;13.52;;;20.30;99.90;;;;;;4969878;28;20121;-64
2023/09/18 10:08:22;;;;;;;16.25;11.82;;;20.30;99.90;;;;;;4985007;28;20043;-64
2023/09/18 10:10:58;;;;;;;20.30;13.15;;;20.40;99.90;;;;;;4982998;28;20485;-64
2023/09/18 10:13:35;;;;;;;17.17;11.27;;;20.50;99.90;;;;;;4984066;28;20837;-63
2023/09/18 10:16:06;;;;;;;12.70;9.90;;;20.50;99.90;;;;;;4985758;28;20076;-63
2023/09/18 10:18:42;;;;;;;12.45;9.60;;;20.50;99.90;;;;;;4976364;28;20043;-64
2023/09/18 10:21:10;;;;;;;17.35;10.98;;;20.70;99.90;;;;;;4977982;28;20080;-64
2023/09/18 10:24:01;;;;;;;13.35;9.00;;;20.70;99.90;;;;;;4995081;28;20041;-64
2023/09/18 10:26:28;;;;;;;12.32;9.32;;;20.90;99.90;;;;;;4988483;28;20050;-64
2023/09/18 10:28:58;;;;;;;13.73;9.95;;;21.00;99.90;;;;;;4970965;28;20323;-64
2023/09/18 10:31:28;;;;;;;14.55;8.68;;;20.90;99.90;;;;;;4972335;28;20136;-64
2023/09/18 10:33:59;;;;;;;10.65;9.30;;;21.20;99.90;;;;;;4977541;28;20048;-63
2023/09/18 10:36:26;;;;;;;10.63;6.78;;;21.10;99.90;;;;;;4993786;28;20045;-63
2023/09/18 10:38:53;;;;;;;12.20;7.97;;;21.00;99.90;;;;;;4996028;28;20041;-64
2023/09/18 10:41:21;;;;;;;11.20;7.80;;;20.90;99.90;;;;;;4985655;28;20054;-64
2023/09/18 10:43:49;;;;;;;12.18;6.55;;;20.90;99.90;;;;;;4987133;28;20081;-64
2023/09/18 10:46:15;;;;;;;9.50;6.18;;;22.60;99.90;;;;;;4992085;28;20085;-64
2023/09/18 10:48:46;;;;;;;10.32;6.60;;;20.80;99.90;;;;;;4987541;28;20077;-64
2023/09/18 10:51:13;;;;;;;9.73;6.47;;;20.70;99.90;;;;;;5012950;28;20490;-64
2023/09/18 10:53:40;;;;;;;8.60;6.80;;;20.70;99.90;;;;;;5002069;28;20158;-64
2023/09/18 10:56:06;;;;;;;8.88;5.30;;;20.70;99.90;;;;;;5019287;28;20140;-64
2023/09/18 10:58:35;;;;;;;10.50;7.45;;;20.80;99.90;;;;;;5012561;28;20124;-64
2023/09/18 11:01:02;;;;;;;7.93;5.97;;;20.90;99.90;;;;;;5011761;28;20485;-64
2023/09/18 11:03:27;;;;;;;8.73;5.20;;;21.00;99.90;;;;;;4996383;28;20053;-64
2023/09/18 11:06:09;;;;;;;8.43;4.97;;;21.20;99.90;;;;;;4999740;28;20064;-64
2023/09/18 11:08:43;;;;;;;10.57;5.45;;;21.10;99.90;;;;;;4985370;28;20041;-64
2023/09/18 11:11:14;;;;;;;10.20;5.20;;;21.00;99.90;;;;;;4999607;28;20045;-63
2023/09/18 11:13:49;;;;;;;9.85;5.82;;;20.90;99.90;;;;;;4997207;28;20059;-63
2023/09/18 11:16:27;;;;;;;7.47;4.47;;;21.00;99.90;;;;;;5000490;28;20045;-64
2023/09/18 11:19:17;;;;;;;8.75;4.82;;;21.30;99.90;;;;;;4984751;28;20490;-64
2023/09/18 11:21:43;;;;;;;10.15;5.13;;;21.40;99.90;;;;;;4986195;28;20444;-64
2023/09/18 11:24:20;;;;;;;6.63;4.72;;;21.20;99.90;;;;;;4993670;28;20037;-63
2023/09/18 11:26:47;;;;;;;9.23;5.07;;;21.90;99.90;;;;;;5007306;28;20572;-63
2023/09/18 11:29:23;;;;;;;9.25;4.90;;;21.60;99.90;;;;;;5000037;28;20041;-64
2023/09/18 11:31:51;;;;;;;8.63;4.38;;;21.50;99.90;;;;;;5016606;28;20056;-64
2023/09/18 11:34:26;;;;;;;6.50;4.85;;;21.40;99.90;;;;;;4996907;28;20037;-64
2023/09/18 11:36:52;;;;;;;8.98;4.60;;;21.40;99.90;;;;;;5001516;28;20065;-64
2023/09/18 11:39:37;;;;;;;10.68;4.65;;;21.30;99.90;;;;;;5020214;28;20045;-63
2023/09/18 11:42:09;;;;;;;;;;;21.80;99.90;;;;;;5009496;28;20065;-64
2023/09/18 11:44:40;;;;;;;5.70;4.82;;;21.60;99.90;;;;;;4981129;28;20360;-63
2023/09/18 11:47:17;;;;;;;6.05;4.00;;;21.70;99.90;;;;;;4973683;28;20088;-64
2023/09/18 11:49:50;;;;;;;9.57;4.50;;;21.70;99.90;;;;;;4987586;28;20045;-64
2023/09/18 11:52:17;;;;;;;6.75;4.28;;;21.60;99.90;;;;;;4968324;28;20052;-63
2023/09/18 11:54:45;;;;;;;8.60;4.63;;;21.70;99.90;;;;;;4991621;28;20041;-64
2023/09/18 11:57:13;;;;;;;6.47;4.28;;;21.80;99.90;;;;;;4975453;28;20089;-63
2023/09/18 11:59:46;;;;;;;7.57;4.53;;;21.70;99.90;;;;;;4988559;28;20125;-63
2023/09/18 12:02:28;;;;;;;6.65;4.18;;;21.60;99.90;;;;;;4971981;28;20050;-63
2023/09/18 12:04:56;;;;;;;5.20;3.40;;;21.90;99.90;;;;;;4996442;28;20101;-64
2023/09/18 12:07:24;;;;;;;5.35;3.38;;;21.90;99.90;;;;;;4973658;28;20053;-63
2023/09/18 12:09:50;;;;;;;4.78;3.65;;;22.40;99.90;;;;;;4991329;28;20524;-64
2023/09/18 12:12:17;;;;;;;7.53;3.58;;;21.70;99.90;;;;;;4999683;28;20069;-63
2023/09/18 12:14:44;;;;;;;11.73;4.32;;;21.90;99.90;;;;;;4995545;28;20049;-64
2023/09/18 12:17:14;;;;;;;4.50;3.47;;;21.70;99.90;;;;;;4976035;28;20126;-64
2023/09/18 12:19:51;;;;;;;7.30;3.70;;;21.80;99.90;;;;;;4994987;28;20034;-64
2023/09/18 12:22:24;;;;;;;6.20;4.32;;;21.40;99.90;;;;;;4995135;28;20045;-63
2023/09/18 12:24:49;;;;;;;5.05;3.63;;;22.00;99.90;;;;;;4991693;28;20030;-64
2023/09/18 12:27:15;;;;;;;4.85;4.22;;;22.00;99.90;;;;;;4994202;28;20096;-64
2023/09/18 12:29:42;;;;;;;8.20;5.22;;;21.70;99.90;;;;;;4995635;28;20046;-63
2023/09/18 12:32:13;;;;;;;8.27;4.80;;;21.80;99.90;;;;;;4990129;28;20315;-64
2023/09/18 12:34:41;;;;;;;8.00;3.97;;;21.90;99.90;;;;;;4971124;28;20561;-64
2023/09/18 12:37:08;;;;;;;6.28;3.90;;;21.60;99.90;;;;;;4990669;28;20402;-64
2023/09/18 12:39:34;;;;;;;7.22;3.60;;;21.40;99.90;;;;;;4972702;28;20051;-64
2023/09/18 12:42:00;;;;;;;6.75;3.90;;;21.40;99.90;;;;;;4980859;28;20053;-65
2023/09/18 12:44:26;;;;;;;8.98;3.97;;;21.80;99.90;;;;;;4986103;28;20427;-63
2023/09/18 12:46:52;;;;;;;6.65;3.90;;;22.80;99.90;;;;;;4994795;28;20098;-64
2023/09/18 12:49:27;;;;;;;5.13;3.65;;;21.70;99.90;;;;;;4992860;28;20033;-63
2023/09/18 12:52:00;;;;;;;5.85;3.85;;;21.70;99.90;;;;;;4983016;28;20641;-64
2023/09/18 12:54:45;;;;;;;6.25;4.68;;;22.20;99.90;;;;;;5021776;28;20048;-63
2023/09/18 12:57:15;;;;;;;6.43;3.72;;;24.20;99.90;;;;;;5003898;28;20053;-64
2023/09/18 12:59:40;;;;;;;7.55;4.43;;;22.00;99.90;;;;;;4997299;28;20513;-64
2023/09/18 13:02:06;;;;;;;8.20;4.40;;;22.00;99.90;;;;;;5015955;28;20046;-64
2023/09/18 13:04:36;;;;;;;4.50;3.90;;;22.00;99.90;;;;;;5018115;28;20111;-64